Brilliant Pescadores — H9JY — position and weather

sailwx.info

Track history (hours):
 
Tides and Currents Weather Stations Pressure Air Temp Water Temp Dewpoint Dewpoint Depression Visibility Wind Speed Wind Dir Waves Ship Positions

Brilliant Pescadores

Last reported at 2017-Sep-27 12:40 UTC. Time now 2017-Oct-18 00:11 UTC.
Position N 34°55' E 139°26'.
Warning: this ship's position is 20 days out of date.

Length 116 m; draft 8.5 m.

Type: Cargo ship. MMSI: 353379000.

Date/timePositionNaut miles runAvg speedWind from/ knotsBaromVisibWave heightAir tempDewpointWater temp
2017-Sep-27 12:40N 34°55' E 139°26'2 9.2
2017-Sep-27 12:29N 34°56' E 139°27'6 9.4
2017-Sep-27 11:53N 34°59' E 139°33'4 9.7
2017-Sep-27 11:30N 35°02' E 139°36'5 9.9
2017-Sep-27 11:00N 35°05' E 139°41'5 9.8
2017-Sep-27 10:30N 35°08' E 139°45'510.4
2017-Sep-27 10:00N 35°13' E 139°46'5 9.9
2017-Sep-27 09:30N 35°18' E 139°44'510.0
2017-Sep-27 09:00N 35°23' E 139°42'5 9.6
2017-Sep-27 08:30N 35°26' E 139°46'510.2
2017-Sep-27 08:00N 35°29' E 139°51'510.6
2017-Sep-27 07:30N 35°32' E 139°57'4 8.0
2017-Sep-27 07:00N 35°34' E 140°01'0 0.3
2017-Sep-27 06:30N 35°35' E 140°01'0 0.1
2017-Sep-27 06:00N 35°35' E 140°01'0 0.1
2017-Sep-27 05:30N 35°35' E 140°01'0 0.0
2017-Sep-27 05:00N 35°35' E 140°01'0 0.1
2017-Sep-27 04:30N 35°35' E 140°01'0 0.1
2017-Sep-27 04:00N 35°35' E 140°01'  
2017-Sep-24 22:44N 35°35' E 140°03'2 3.7
2017-Sep-24 22:08N 35°34' E 140°00'0 0.3
2017-Sep-24 21:55N 35°34' E 140°00'0 0.1
2017-Sep-24 21:29N 35°34' E 140°00'0 0.0
2017-Sep-24 21:00N 35°34' E 140°00'0 0.1
2017-Sep-24 20:24N 35°34' E 140°00'2 5.3
2017-Sep-24 20:00N 35°33' E 139°58'510.9
2017-Sep-24 19:30N 35°30' E 139°53'510.8
2017-Sep-24 19:00N 35°26' E 139°49'4 8.7
2017-Sep-24 18:30N 35°22' E 139°52'1 2.2
2017-Sep-24 17:55N 35°22' E 139°53'0 0.0
2017-Sep-24 17:25N 35°22' E 139°53'0 0.0
2017-Sep-24 16:55N 35°22' E 139°53'0 0.0
2017-Sep-24 16:19N 35°22' E 139°53'0 0.0
2017-Sep-24 15:49N 35°22' E 139°53'0 0.0
2017-Sep-24 15:19N 35°22' E 139°53'0 0.0
2017-Sep-24 14:55N 35°22' E 139°53'0 0.0
2017-Sep-24 14:13N 35°22' E 139°53'0 0.0
2017-Sep-24 12:55N 35°22' E 139°53'0 0.0
2017-Sep-24 12:13N 35°22' E 139°53'0 0.0
2017-Sep-24 11:49N 35°22' E 139°53'0 0.0
2017-Sep-24 11:28N 35°22' E 139°53'0 0.0
2017-Sep-24 10:58N 35°22' E 139°53'0 0.0
2017-Sep-24 10:25N 35°22' E 139°53'0 0.0
2017-Sep-24 08:16N 35°22' E 139°53'0 0.0
2017-Sep-24 07:31N 35°22' E 139°53'0 0.1
2017-Sep-24 07:25N 35°22' E 139°53'0 0.0
2017-Sep-24 06:55N 35°22' E 139°53'0 0.0
2017-Sep-24 06:25N 35°22' E 139°53'0 0.0
2017-Sep-24 05:16N 35°22' E 139°53'0 0.0
2017-Sep-24 04:58N 35°22' E 139°53'0 0.0
2017-Sep-24 04:28N 35°22' E 139°53'0 0.0
2017-Sep-24 03:49N 35°22' E 139°53'0 0.0
2017-Sep-24 03:25N 35°22' E 139°53'0 0.0
2017-Sep-24 02:25N 35°22' E 139°53'0 0.0
2017-Sep-24 01:58N 35°22' E 139°53'0 0.0
2017-Sep-24 01:25N 35°22' E 139°53'0 0.0
2017-Sep-24 00:58N 35°22' E 139°53'0 0.0
2017-Sep-24 00:28N 35°22' E 139°53'0 0.0
2017-Sep-23 23:46N 35°22' E 139°53'0 0.0
2017-Sep-23 23:28N 35°22' E 139°53'0 0.0
2017-Sep-23 22:58N 35°22' E 139°53'0 0.0
2017-Sep-23 21:49N 35°22' E 139°53'0 0.0
2017-Sep-23 21:31N 35°22' E 139°53'0 0.0
2017-Sep-23 21:01N 35°22' E 139°53'0 0.0
2017-Sep-23 19:30N 35°22' E 139°53'0 0.0
2017-Sep-21 17:56N 35°22' E 139°53'0 0.0
2017-Sep-21 17:26N 35°22' E 139°53'0 0.0
2017-Sep-21 14:37N 35°22' E 139°53'0 0.0
2017-Sep-21 14:25N 35°22' E 139°53'0 0.0
2017-Sep-21 13:55N 35°22' E 139°53'0 0.0
2017-Sep-21 13:07N 35°22' E 139°53'0 0.0
2017-Sep-21 12:43N 35°22' E 139°53'0 0.0
2017-Sep-21 08:16N 35°22' E 139°53'0 0.0
2017-Sep-21 07:49N 35°22' E 139°53'0 0.0
2017-Sep-21 07:28N 35°22' E 139°53'0 0.0
2017-Sep-21 05:28N 35°22' E 139°53'0 0.0
2017-Sep-21 04:52N 35°22' E 139°53'0 0.0
2017-Sep-21 04:10N 35°22' E 139°53'0 0.0
2017-Sep-21 03:52N 35°22' E 139°53'0 0.0
2017-Sep-21 03:19N 35°22' E 139°53'0 0.0
2017-Sep-21 02:58N 35°22' E 139°53'0 0.0
2017-Sep-21 02:28N 35°22' E 139°53'0 0.0
2017-Sep-21 01:58N 35°22' E 139°53'0 0.0
2017-Sep-21 01:22N 35°22' E 139°53'0 0.0
2017-Sep-21 00:46N 35°22' E 139°53'0 0.0
2017-Sep-21 00:28N 35°22' E 139°53'0 0.0
2017-Sep-20 23:58N 35°22' E 139°53'0 0.0
2017-Sep-20 23:28N 35°22' E 139°53'0 0.0
2017-Sep-20 22:58N 35°22' E 139°53'0 0.0
2017-Sep-20 19:01N 35°22' E 139°53'0 0.0
2017-Sep-20 18:46N 35°22' E 139°53'0 0.0
2017-Sep-20 17:28N 35°22' E 139°53'0 0.0
2017-Sep-20 15:09N 35°22' E 139°53'0 0.0
2017-Sep-20 14:51N 35°22' E 139°53'0 0.0
2017-Sep-20 13:45N 35°22' E 139°53'0 0.0
2017-Sep-20 13:27N 35°22' E 139°53'0 0.0
2017-Sep-20 12:57N 35°22' E 139°53'0 0.0
2017-Sep-20 12:30N 35°22' E 139°53'0 0.0
2017-Sep-20 10:54N 35°22' E 139°53'0 0.0
2017-Sep-19 20:27N 35°22' E 139°53'0 0.0
2017-Sep-19 19:15N 35°22' E 139°53'0 0.0
2017-Sep-19 17:51N 35°22' E 139°53'0 0.0
2017-Sep-19 17:21N 35°22' E 139°53'0 0.0
2017-Sep-19 16:57N 35°22' E 139°53'0 0.0
2017-Sep-19 16:21N 35°22' E 139°53'0 0.0
2017-Sep-19 15:09N 35°22' E 139°53'0 0.0
2017-Sep-19 14:48N 35°22' E 139°53'0 0.0
2017-Sep-19 08:31N 35°22' E 139°53'0 0.1
2017-Sep-19 08:25N 35°22' E 139°53'0 0.0
2017-Sep-19 07:52N 35°22' E 139°53'0 0.0
2017-Sep-19 07:25N 35°22' E 139°53'0 0.0
2017-Sep-19 06:58N 35°22' E 139°53'0 0.0
2017-Sep-19 06:19N 35°22' E 139°53'0 0.0
2017-Sep-19 05:55N 35°22' E 139°53'0 0.0
2017-Sep-19 05:28N 35°22' E 139°53'0 0.0
2017-Sep-19 04:58N 35°22' E 139°53'0 0.0
2017-Sep-19 04:25N 35°22' E 139°53'0 0.0
2017-Sep-19 03:13N 35°22' E 139°53'0 0.0
2017-Sep-19 00:52N 35°22' E 139°53'0 0.0
2017-Sep-19 00:13N 35°22' E 139°53'0 0.0
2017-Sep-18 23:58N 35°22' E 139°53'0 0.0
2017-Sep-18 23:19N 35°22' E 139°53'0 0.0
2017-Sep-18 22:52N 35°22' E 139°53'0 0.0
2017-Sep-18 22:25N 35°22' E 139°53'0 0.0
2017-Sep-18 21:55N 35°22' E 139°53'0 0.0
2017-Sep-18 21:28N 35°22' E 139°53'0 0.0
2017-Sep-18 20:58N 35°22' E 139°53'0 0.0
2017-Sep-18 20:25N 35°22' E 139°53'0 0.0
2017-Sep-18 19:55N 35°22' E 139°53'0 0.0
2017-Sep-18 19:25N 35°22' E 139°53'0 0.0
2017-Sep-18 18:55N 35°22' E 139°53'0 0.0
2017-Sep-18 18:28N 35°22' E 139°53'0 0.0
2017-Sep-18 17:58N 35°22' E 139°53'0 0.0
2017-Sep-18 17:25N 35°22' E 139°53'0 0.0
2017-Sep-18 16:55N 35°22' E 139°53'0 0.0
2017-Sep-18 16:25N 35°22' E 139°53'0 0.0
2017-Sep-18 15:55N 35°22' E 139°53'0 0.0
2017-Sep-18 15:28N 35°22' E 139°53'0 0.0
2017-Sep-18 14:55N 35°22' E 139°53'0 0.0
2017-Sep-18 14:25N 35°22' E 139°53'0 0.0
2017-Sep-18 12:34N 35°22' E 139°53'0 0.1
2017-Sep-18 12:28N 35°22' E 139°53'0 0.0
2017-Sep-18 11:58N 35°22' E 139°53'0 0.0
2017-Sep-18 10:37N 35°22' E 139°53'0 0.0
2017-Sep-18 10:19N 35°22' E 139°53'0 0.0
2017-Sep-18 10:00N 35°22' E 139°53'0 0.0
2017-Sep-18 09:30N 35°22' E 139°53'0 0.0
2017-Sep-18 08:48N 35°22' E 139°53'0 0.0
2017-Sep-18 08:24N 35°22' E 139°53'0 0.0
2017-Sep-18 08:00N 35°22' E 139°53'0 0.0
2017-Sep-18 07:30N 35°22' E 139°53'0 0.0
2017-Sep-18 06:54N 35°22' E 139°53'0 0.0
2017-Sep-18 06:30N 35°22' E 139°53'0 0.0
2017-Sep-18 06:00N 35°22' E 139°53'0 0.0
2017-Sep-18 05:30N 35°22' E 139°53'0 0.0
2017-Sep-18 04:59N 35°22' E 139°53'1 1.6
2017-Sep-18 04:30N 35°22' E 139°52'4 7.3
2017-Sep-18 04:00N 35°25' E 139°49'1 1.1
2017-Sep-18 03:31N 35°25' E 139°50'0 0.0
2017-Sep-18 03:00N 35°25' E 139°50'0 0.1
2017-Sep-18 02:30N 35°25' E 139°50'0 0.0
2017-Sep-18 01:59N 35°25' E 139°50'0 0.0
2017-Sep-18 01:29N 35°25' E 139°50'0 0.0
2017-Sep-18 01:01N 35°25' E 139°50'0 0.0
2017-Sep-18 00:30N 35°25' E 139°50'0 0.0
2017-Sep-18 00:00N 35°25' E 139°50'0 0.0
2017-Sep-17 23:30N 35°25' E 139°50'0 0.0
2017-Sep-17 23:00N 35°25' E 139°50'0 0.0
2017-Sep-17 22:30N 35°25' E 139°50'0 0.1
2017-Sep-17 22:00N 35°25' E 139°50'0 0.0
2017-Sep-17 21:29N 35°25' E 139°50'0 0.1
2017-Sep-17 21:00N 35°25' E 139°50'0 0.0
2017-Sep-17 20:29N 35°25' E 139°50'0 0.1
2017-Sep-17 19:59N 35°25' E 139°50'0 0.1
2017-Sep-17 19:27N 35°25' E 139°50'0 0.1
2017-Sep-17 19:00N 35°25' E 139°50'0 0.0
2017-Sep-17 18:28N 35°25' E 139°50'0 0.0
2017-Sep-17 18:00N 35°25' E 139°50'0 0.1
2017-Sep-17 17:30N 35°25' E 139°50'0 0.3
2017-Sep-17 16:59N 35°25' E 139°50'0 0.0
2017-Sep-17 16:27N 35°25' E 139°50'0 0.1
2017-Sep-17 15:58N 35°25' E 139°50'0 0.0
2017-Sep-17 15:29N 35°25' E 139°50'0 0.3
2017-Sep-17 15:00N 35°25' E 139°50'0 0.0
2017-Sep-17 14:29N 35°25' E 139°50'0 0.0
2017-Sep-17 14:00N 35°25' E 139°50'0 0.0
2017-Sep-17 13:30N 35°25' E 139°50'0 0.0
2017-Sep-17 13:00N 35°25' E 139°50'  
Track history (hours):
 
Tides and Currents Weather Stations Pressure Air Temp Water Temp Dewpoint Dewpoint Depression Visibility Wind Speed Wind Dir Waves Ship Positions

Brilliant Pescadores

Last reported at 2017-Sep-27 12:40 UTC. Time now 2017-Oct-18 00:11 UTC.
Position N 34°55' E 139°26'.
Warning: this ship's position is 20 days out of date.

Length 116 m; draft 8.5 m.

Type: Cargo ship. MMSI: 353379000.

Date/timePositionNaut miles runAvg speedWind from/ knotsBaromVisibWave heightAir tempDewpointWater temp
2017-Sep-27 12:40N 34°55' E 139°26'2 9.2
2017-Sep-27 12:29N 34°56' E 139°27'6 9.4
2017-Sep-27 11:53N 34°59' E 139°33'4 9.7
2017-Sep-27 11:30N 35°02' E 139°36'5 9.9
2017-Sep-27 11:00N 35°05' E 139°41'5 9.8
2017-Sep-27 10:30N 35°08' E 139°45'510.4
2017-Sep-27 10:00N 35°13' E 139°46'5 9.9
2017-Sep-27 09:30N 35°18' E 139°44'510.0
2017-Sep-27 09:00N 35°23' E 139°42'5 9.6
2017-Sep-27 08:30N 35°26' E 139°46'510.2
2017-Sep-27 08:00N 35°29' E 139°51'510.6
2017-Sep-27 07:30N 35°32' E 139°57'4 8.0
2017-Sep-27 07:00N 35°34' E 140°01'0 0.3
2017-Sep-27 06:30N 35°35' E 140°01'0 0.1
2017-Sep-27 06:00N 35°35' E 140°01'0 0.1
2017-Sep-27 05:30N 35°35' E 140°01'0 0.0
2017-Sep-27 05:00N 35°35' E 140°01'0 0.1
2017-Sep-27 04:30N 35°35' E 140°01'0 0.1
2017-Sep-27 04:00N 35°35' E 140°01'  
2017-Sep-24 22:44N 35°35' E 140°03'2 3.7
2017-Sep-24 22:08N 35°34' E 140°00'0 0.3
2017-Sep-24 21:55N 35°34' E 140°00'0 0.1
2017-Sep-24 21:29N 35°34' E 140°00'0 0.0
2017-Sep-24 21:00N 35°34' E 140°00'0 0.1
2017-Sep-24 20:24N 35°34' E 140°00'2 5.3
2017-Sep-24 20:00N 35°33' E 139°58'510.9
2017-Sep-24 19:30N 35°30' E 139°53'510.8
2017-Sep-24 19:00N 35°26' E 139°49'4 8.7
2017-Sep-24 18:30N 35°22' E 139°52'1 2.2
2017-Sep-24 17:55N 35°22' E 139°53'0 0.0
2017-Sep-24 17:25N 35°22' E 139°53'0 0.0
2017-Sep-24 16:55N 35°22' E 139°53'0 0.0
2017-Sep-24 16:19N 35°22' E 139°53'0 0.0
2017-Sep-24 15:49N 35°22' E 139°53'0 0.0
2017-Sep-24 15:19N 35°22' E 139°53'0 0.0
2017-Sep-24 14:55N 35°22' E 139°53'0 0.0
2017-Sep-24 14:13N 35°22' E 139°53'0 0.0
2017-Sep-24 12:55N 35°22' E 139°53'0 0.0
2017-Sep-24 12:13N 35°22' E 139°53'0 0.0
2017-Sep-24 11:49N 35°22' E 139°53'0 0.0
2017-Sep-24 11:28N 35°22' E 139°53'0 0.0
2017-Sep-24 10:58N 35°22' E 139°53'0 0.0
2017-Sep-24 10:25N 35°22' E 139°53'0 0.0
2017-Sep-24 08:16N 35°22' E 139°53'0 0.0
2017-Sep-24 07:31N 35°22' E 139°53'0 0.1
2017-Sep-24 07:25N 35°22' E 139°53'0 0.0
2017-Sep-24 06:55N 35°22' E 139°53'0 0.0
2017-Sep-24 06:25N 35°22' E 139°53'0 0.0
2017-Sep-24 05:16N 35°22' E 139°53'0 0.0
2017-Sep-24 04:58N 35°22' E 139°53'0 0.0
2017-Sep-24 04:28N 35°22' E 139°53'0 0.0
2017-Sep-24 03:49N 35°22' E 139°53'0 0.0
2017-Sep-24 03:25N 35°22' E 139°53'0 0.0
2017-Sep-24 02:25N 35°22' E 139°53'0 0.0
2017-Sep-24 01:58N 35°22' E 139°53'0 0.0
2017-Sep-24 01:25N 35°22' E 139°53'0 0.0
2017-Sep-24 00:58N 35°22' E 139°53'0 0.0
2017-Sep-24 00:28N 35°22' E 139°53'0 0.0
2017-Sep-23 23:46N 35°22' E 139°53'0 0.0
2017-Sep-23 23:28N 35°22' E 139°53'0 0.0
2017-Sep-23 22:58N 35°22' E 139°53'0 0.0
2017-Sep-23 21:49N 35°22' E 139°53'0 0.0
2017-Sep-23 21:31N 35°22' E 139°53'0 0.0
2017-Sep-23 21:01N 35°22' E 139°53'0 0.0
2017-Sep-23 19:30N 35°22' E 139°53'0 0.0
2017-Sep-21 17:56N 35°22' E 139°53'0 0.0
2017-Sep-21 17:26N 35°22' E 139°53'0 0.0
2017-Sep-21 14:37N 35°22' E 139°53'0 0.0
2017-Sep-21 14:25N 35°22' E 139°53'0 0.0
2017-Sep-21 13:55N 35°22' E 139°53'0 0.0
2017-Sep-21 13:07N 35°22' E 139°53'0 0.0
2017-Sep-21 12:43N 35°22' E 139°53'0 0.0
2017-Sep-21 08:16N 35°22' E 139°53'0 0.0
2017-Sep-21 07:49N 35°22' E 139°53'0 0.0
2017-Sep-21 07:28N 35°22' E 139°53'0 0.0
2017-Sep-21 05:28N 35°22' E 139°53'0 0.0
2017-Sep-21 04:52N 35°22' E 139°53'0 0.0
2017-Sep-21 04:10N 35°22' E 139°53'0 0.0
2017-Sep-21 03:52N 35°22' E 139°53'0 0.0
2017-Sep-21 03:19N 35°22' E 139°53'0 0.0
2017-Sep-21 02:58N 35°22' E 139°53'0 0.0
2017-Sep-21 02:28N 35°22' E 139°53'0 0.0
2017-Sep-21 01:58N 35°22' E 139°53'0 0.0
2017-Sep-21 01:22N 35°22' E 139°53'0 0.0
2017-Sep-21 00:46N 35°22' E 139°53'0 0.0
2017-Sep-21 00:28N 35°22' E 139°53'0 0.0
2017-Sep-20 23:58N 35°22' E 139°53'0 0.0
2017-Sep-20 23:28N 35°22' E 139°53'0 0.0
2017-Sep-20 22:58N 35°22' E 139°53'0 0.0
2017-Sep-20 19:01N 35°22' E 139°53'0 0.0
2017-Sep-20 18:46N 35°22' E 139°53'0 0.0
2017-Sep-20 17:28N 35°22' E 139°53'0 0.0
2017-Sep-20 15:09N 35°22' E 139°53'0 0.0
2017-Sep-20 14:51N 35°22' E 139°53'0 0.0
2017-Sep-20 13:45N 35°22' E 139°53'0 0.0
2017-Sep-20 13:27N 35°22' E 139°53'0 0.0
2017-Sep-20 12:57N 35°22' E 139°53'0 0.0
2017-Sep-20 12:30N 35°22' E 139°53'0 0.0
2017-Sep-20 10:54N 35°22' E 139°53'0 0.0
2017-Sep-19 20:27N 35°22' E 139°53'0 0.0
2017-Sep-19 19:15N 35°22' E 139°53'0 0.0
2017-Sep-19 17:51N 35°22' E 139°53'0 0.0
2017-Sep-19 17:21N 35°22' E 139°53'0 0.0
2017-Sep-19 16:57N 35°22' E 139°53'0 0.0
2017-Sep-19 16:21N 35°22' E 139°53'0 0.0
2017-Sep-19 15:09N 35°22' E 139°53'0 0.0
2017-Sep-19 14:48N 35°22' E 139°53'0 0.0
2017-Sep-19 08:31N 35°22' E 139°53'0 0.1
2017-Sep-19 08:25N 35°22' E 139°53'0 0.0
2017-Sep-19 07:52N 35°22' E 139°53'0 0.0
2017-Sep-19 07:25N 35°22' E 139°53'0 0.0
2017-Sep-19 06:58N 35°22' E 139°53'0 0.0
2017-Sep-19 06:19N 35°22' E 139°53'0 0.0
2017-Sep-19 05:55N 35°22' E 139°53'0 0.0
2017-Sep-19 05:28N 35°22' E 139°53'0 0.0
2017-Sep-19 04:58N 35°22' E 139°53'0 0.0
2017-Sep-19 04:25N 35°22' E 139°53'0 0.0
2017-Sep-19 03:13N 35°22' E 139°53'0 0.0
2017-Sep-19 00:52N 35°22' E 139°53'0 0.0
2017-Sep-19 00:13N 35°22' E 139°53'0 0.0
2017-Sep-18 23:58N 35°22' E 139°53'0 0.0
2017-Sep-18 23:19N 35°22' E 139°53'0 0.0
2017-Sep-18 22:52N 35°22' E 139°53'0 0.0
2017-Sep-18 22:25N 35°22' E 139°53'0 0.0
2017-Sep-18 21:55N 35°22' E 139°53'0 0.0
2017-Sep-18 21:28N 35°22' E 139°53'0 0.0
2017-Sep-18 20:58N 35°22' E 139°53'0 0.0
2017-Sep-18 20:25N 35°22' E 139°53'0 0.0
2017-Sep-18 19:55N 35°22' E 139°53'0 0.0
2017-Sep-18 19:25N 35°22' E 139°53'0 0.0
2017-Sep-18 18:55N 35°22' E 139°53'0 0.0
2017-Sep-18 18:28N 35°22' E 139°53'0 0.0
2017-Sep-18 17:58N 35°22' E 139°53'0 0.0
2017-Sep-18 17:25N 35°22' E 139°53'0 0.0
2017-Sep-18 16:55N 35°22' E 139°53'0 0.0
2017-Sep-18 16:25N 35°22' E 139°53'0 0.0
2017-Sep-18 15:55N 35°22' E 139°53'0 0.0
2017-Sep-18 15:28N 35°22' E 139°53'0 0.0
2017-Sep-18 14:55N 35°22' E 139°53'0 0.0
2017-Sep-18 14:25N 35°22' E 139°53'0 0.0
2017-Sep-18 12:34N 35°22' E 139°53'0 0.1
2017-Sep-18 12:28N 35°22' E 139°53'0 0.0
2017-Sep-18 11:58N 35°22' E 139°53'0 0.0
2017-Sep-18 10:37N 35°22' E 139°53'0 0.0
2017-Sep-18 10:19N 35°22' E 139°53'0 0.0
2017-Sep-18 10:00N 35°22' E 139°53'0 0.0
2017-Sep-18 09:30N 35°22' E 139°53'0 0.0
2017-Sep-18 08:48N 35°22' E 139°53'0 0.0
2017-Sep-18 08:24N 35°22' E 139°53'0 0.0
2017-Sep-18 08:00N 35°22' E 139°53'0 0.0
2017-Sep-18 07:30N 35°22' E 139°53'0 0.0
2017-Sep-18 06:54N 35°22' E 139°53'0 0.0
2017-Sep-18 06:30N 35°22' E 139°53'0 0.0
2017-Sep-18 06:00N 35°22' E 139°53'0 0.0
2017-Sep-18 05:30N 35°22' E 139°53'0 0.0
2017-Sep-18 04:59N 35°22' E 139°53'1 1.6
2017-Sep-18 04:30N 35°22' E 139°52'4 7.3
2017-Sep-18 04:00N 35°25' E 139°49'1 1.1
2017-Sep-18 03:31N 35°25' E 139°50'0 0.0
2017-Sep-18 03:00N 35°25' E 139°50'0 0.1
2017-Sep-18 02:30N 35°25' E 139°50'0 0.0
2017-Sep-18 01:59N 35°25' E 139°50'0 0.0
2017-Sep-18 01:29N 35°25' E 139°50'0 0.0
2017-Sep-18 01:01N 35°25' E 139°50'0 0.0
2017-Sep-18 00:30N 35°25' E 139°50'0 0.0
2017-Sep-18 00:00N 35°25' E 139°50'0 0.0
2017-Sep-17 23:30N 35°25' E 139°50'0 0.0
2017-Sep-17 23:00N 35°25' E 139°50'0 0.0
2017-Sep-17 22:30N 35°25' E 139°50'0 0.1
2017-Sep-17 22:00N 35°25' E 139°50'0 0.0
2017-Sep-17 21:29N 35°25' E 139°50'0 0.1
2017-Sep-17 21:00N 35°25' E 139°50'0 0.0
2017-Sep-17 20:29N 35°25' E 139°50'0 0.1
2017-Sep-17 19:59N 35°25' E 139°50'0 0.1
2017-Sep-17 19:27N 35°25' E 139°50'0 0.1
2017-Sep-17 19:00N 35°25' E 139°50'0 0.0
2017-Sep-17 18:28N 35°25' E 139°50'0 0.0
2017-Sep-17 18:00N 35°25' E 139°50'0 0.1
2017-Sep-17 17:30N 35°25' E 139°50'0 0.3
2017-Sep-17 16:59N 35°25' E 139°50'0 0.0
2017-Sep-17 16:27N 35°25' E 139°50'0 0.1
2017-Sep-17 15:58N 35°25' E 139°50'0 0.0
2017-Sep-17 15:29N 35°25' E 139°50'0 0.3
2017-Sep-17 15:00N 35°25' E 139°50'0 0.0
2017-Sep-17 14:29N 35°25' E 139°50'0 0.0
2017-Sep-17 14:00N 35°25' E 139°50'0 0.0
2017-Sep-17 13:30N 35°25' E 139°50'0 0.0
2017-Sep-17 13:00N 35°25' E 139°50'  

Dump ship's entire track history